Time;durP1;ratioP1;P1;durP2;ratioP2;P2;SDS_P1;SDS_P2;PMS_P1;PMS_P2;Temp;Humidity;BMP_temperature;BMP_pressure;BME280_temperature;BME280_humidity;BME280_pressure;Samples;Min_cycle;Max_cycle;Signal;HPM_P1;HPM_P2
2022/01/05 00:00:12;;;;;;;24.50;10.75;;;;;;;2.26;87.98;94115.63;5101065;28;20229;-74
2022/01/05 00:02:40;;;;;;;22.15;10.32;;;;;;;2.17;88.61;94109.34;5115117;28;20221;-73
2022/01/05 00:05:08;;;;;;;31.17;13.70;;;;;;;1.92;88.56;94111.25;5114742;28;20743;-73
2022/01/05 00:07:36;;;;;;;23.67;9.80;;;;;;;1.77;89.15;94119.47;5114501;28;20205;-75
2022/01/05 00:10:05;;;;;;;27.65;12.45;;;;;;;1.76;90.16;94109.84;5114758;28;20201;-73
2022/01/05 00:12:32;;;;;;;30.80;12.70;;;;;;;1.85;90.71;94113.47;5114687;28;20202;-74
2022/01/05 00:14:59;;;;;;;25.55;12.82;;;;;;;2.05;90.77;94115.09;5114790;28;20201;-73
2022/01/05 00:17:26;;;;;;;24.75;12.43;;;;;;;2.11;89.30;94117.41;5113936;28;20590;-73
2022/01/05 00:19:53;;;;;;;31.17;13.45;;;;;;;2.03;87.98;94118.06;5113918;28;20230;-73
2022/01/05 00:22:20;;;;;;;28.00;13.90;;;;;;;1.88;89.05;94110.25;5114249;28;20205;-74
2022/01/05 00:24:48;;;;;;;24.40;11.93;;;;;;;1.87;88.94;94108.66;5114234;28;20213;-75
2022/01/05 00:27:15;;;;;;;22.25;11.60;;;;;;;2.17;89.26;94117.34;5114370;28;20198;-74
2022/01/05 00:29:42;;;;;;;17.38;9.27;;;;;;;1.92;88.77;94124.59;5105018;28;20267;-75
2022/01/05 00:32:09;;;;;;;19.67;10.27;;;;;;;1.88;88.44;94093.44;5109901;28;20206;-74
2022/01/05 00:34:37;;;;;;;23.40;10.48;;;;;;;1.98;88.94;94115.44;5114098;28;20297;-74
2022/01/05 00:37:04;;;;;;;21.85;10.93;;;;;;;1.88;89.59;94114.78;5113684;28;20207;-74
2022/01/05 00:39:31;;;;;;;29.85;10.93;;;;;;;1.93;89.67;94115.50;5113970;28;20230;-74
2022/01/05 00:42:00;;;;;;;26.45;12.20;;;;;;;1.68;89.27;94121.13;5113891;28;20680;-75
2022/01/05 00:44:27;;;;;;;26.45;10.45;;;;;;;1.80;90.14;94118.88;5114000;28;20212;-75
2022/01/05 00:46:54;;;;;;;25.05;12.60;;;;;;;1.90;89.75;94126.78;5113415;28;20198;-74
2022/01/05 00:49:21;;;;;;;30.15;12.63;;;;;;;1.93;89.34;94107.50;5113247;28;20563;-74
2022/01/05 00:51:48;;;;;;;20.83;10.77;;;;;;;2.02;89.00;94100.44;5112994;28;20583;-73
2022/01/05 00:54:15;;;;;;;25.60;11.77;;;;;;;2.08;89.16;94117.19;5113098;28;20205;-73
2022/01/05 00:56:42;;;;;;;20.00;11.38;;;;;;;2.12;88.19;94096.84;5113747;28;20209;-74
2022/01/05 00:59:11;;;;;;;26.60;13.85;;;;;;;2.21;87.83;94099.66;5113639;28;20201;-74
2022/01/05 01:01:37;;;;;;;24.45;9.10;;;;;;;2.35;87.92;94098.66;5113811;28;20198;-74
2022/01/05 01:04:05;;;;;;;10.27;5.05;;;;;;;2.58;87.62;94090.84;5113027;28;20198;-74
2022/01/05 01:06:32;;;;;;;23.27;10.60;;;;;;;2.66;87.89;94093.66;5106934;28;20213;-74
2022/01/05 01:08:59;;;;;;;18.33;7.95;;;;;;;2.84;86.99;94082.13;5104939;28;20209;-74
2022/01/05 01:11:26;;;;;;;26.45;11.25;;;;;;;2.89;86.70;94080.44;5099682;28;20209;-74
2022/01/05 01:13:53;;;;;;;24.33;11.73;;;;;;;2.94;86.88;94075.03;5113184;28;20687;-74
2022/01/05 01:16:21;;;;;;;22.23;10.77;;;;;;;2.90;87.05;94077.47;5113031;28;20197;-74
2022/01/05 01:18:48;;;;;;;28.27;12.07;;;;;;;2.91;86.41;94088.97;5112584;28;20204;-74
2022/01/05 01:21:15;;;;;;;23.83;10.52;;;;;;;2.79;87.01;94082.22;5112914;28;20225;-75
2022/01/05 01:23:53;;;;;;;24.17;11.15;;;;;;;2.74;86.95;94090.31;5112578;28;20212;-74
2022/01/05 01:26:20;;;;;;;39.35;21.60;;;;;;;2.52;87.34;94087.44;5102151;28;20190;-74
2022/01/05 01:28:47;;;;;;;51.75;21.65;;;;;;;2.49;87.84;94082.69;5113123;28;20201;-74
2022/01/05 01:31:14;;;;;;;45.47;20.65;;;;;;;2.62;87.70;94087.28;5112943;28;20212;-74
2022/01/05 01:33:43;;;;;;;36.80;18.98;;;;;;;2.52;87.87;94086.66;5110313;28;20221;-74
2022/01/05 01:36:10;;;;;;;27.50;11.73;;;;;;;2.71;87.09;94085.56;5092425;28;20210;-74
2022/01/05 01:38:37;;;;;;;34.03;15.93;;;;;;;2.58;86.12;94080.16;5109231;28;20205;-74
2022/01/05 01:41:04;;;;;;;26.08;13.27;;;;;;;2.68;86.69;94067.44;5112435;28;20600;-74
2022/01/05 01:43:31;;;;;;;23.52;11.32;;;;;;;2.56;86.98;94067.09;5112982;28;20205;-74
2022/01/05 01:45:59;;;;;;;26.33;13.10;;;;;;;2.84;85.88;94063.41;5112787;28;20193;-74
2022/01/05 01:48:25;;;;;;;23.30;10.48;;;;;;;2.77;86.45;94067.53;5112516;28;20289;-74
2022/01/05 01:50:54;;;;;;;21.65;9.77;;;;;;;2.85;86.22;94064.22;5101831;28;20694;-75
2022/01/05 01:53:21;;;;;;;20.50;9.27;;;;;;;3.09;85.80;94064.06;5109667;28;20205;-73
2022/01/05 01:55:49;;;;;;;17.92;10.07;;;;;;;3.10;84.89;94060.31;5112874;28;20206;-75
2022/01/05 01:58:18;;;;;;;22.52;9.80;;;;;;;3.13;85.57;94054.38;5112466;28;20227;-73
2022/01/05 02:00:45;;;;;;;15.32;8.93;;;;;;;3.12;85.67;94053.56;5112170;28;20225;-74
2022/01/05 02:03:14;;;;;;;18.48;8.52;;;;;;;3.32;84.84;94057.75;5112573;28;20210;-73
2022/01/05 02:05:41;;;;;;;16.83;9.07;;;;;;;3.31;84.95;94066.88;5112526;28;20219;-75
2022/01/05 02:08:09;;;;;;;18.17;8.48;;;;;;;3.35;84.72;94057.16;5112249;28;20194;-74
2022/01/05 02:10:36;;;;;;;24.95;9.82;;;;;;;3.44;84.08;94065.28;5111930;28;20609;-74
2022/01/05 02:13:04;;;;;;;13.82;7.40;;;;;;;3.56;83.56;94053.00;5098522;28;20244;-75
2022/01/05 02:15:31;;;;;;;18.60;9.10;;;;;;;3.56;83.71;94050.31;5111908;28;20213;-74
2022/01/05 02:18:10;;;;;;;15.07;8.35;;;;;;;3.58;83.55;94050.03;5112138;28;20266;-74
2022/01/05 02:20:37;;;;;;;20.45;9.45;;;;;;;3.55;83.18;94051.41;5110430;28;20205;-74
2022/01/05 02:23:05;;;;;;;15.48;8.02;;;;;;;3.53;83.85;94045.59;5111840;28;20205;-74
2022/01/05 02:25:32;;;;;;;14.65;7.40;;;;;;;3.68;83.09;94051.72;5098478;28;20260;-74
2022/01/05 02:27:59;;;;;;;13.82;7.63;;;;;;;3.68;83.25;94062.44;5102790;28;20607;-74
2022/01/05 02:30:28;;;;;;;12.27;6.85;;;;;;;3.70;82.75;94041.50;5107192;28;20205;-73
2022/01/05 02:32:55;;;;;;;20.75;7.45;;;;;;;3.72;82.50;94036.63;5101809;28;20230;-74
2022/01/05 02:35:23;;;;;;;22.27;8.68;;;;;;;3.71;82.54;94032.38;5107663;28;20209;-73
2022/01/05 02:37:53;;;;;;;20.95;9.82;;;;;;;3.64;83.63;94040.81;5111577;28;20218;-74
2022/01/05 02:40:23;;;;;;;17.17;7.78;;;;;;;3.50;83.76;94032.78;5111526;28;20253;-75
2022/01/05 02:42:50;;;;;;;19.73;9.40;;;;;;;3.44;84.12;94036.63;5111234;28;20286;-74
2022/01/05 02:45:17;;;;;;;18.42;8.35;;;;;;;3.35;84.08;94040.31;5107714;28;20210;-74
2022/01/05 02:47:44;;;;;;;17.52;8.68;;;;;;;3.40;84.51;94038.34;5102360;28;20228;-74
2022/01/05 02:50:12;;;;;;;20.80;9.40;;;;;;;3.16;84.22;94033.16;5111343;28;20204;-73
2022/01/05 02:52:40;;;;;;;39.72;20.13;;;;;;;2.85;84.64;94040.94;5111852;28;20201;-74
2022/01/05 02:55:08;;;;;;;18.48;9.38;;;;;;;2.85;84.91;94027.56;5111219;28;20564;-75
2022/01/05 02:57:37;;;;;;;24.50;11.60;;;;;;;2.83;85.96;94013.69;5111665;28;20217;-73
2022/01/05 03:00:06;;;;;;;26.27;11.27;;;;;;;2.69;85.65;94018.22;5111011;28;20232;-73
2022/01/05 03:02:32;;;;;;;19.40;10.13;;;;;;;2.70;86.27;94019.81;5111189;28;20765;-74
2022/01/05 03:04:59;;;;;;;25.95;12.60;;;;;;;2.53;85.95;94040.94;5111158;28;20198;-74
2022/01/05 03:07:26;;;;;;;26.05;12.80;;;;;;;2.46;86.00;94035.19;5111529;28;20201;-74
2022/01/05 03:09:53;;;;;;;22.17;10.40;;;;;;;2.53;87.16;94040.13;5097923;28;20607;-74
2022/01/05 03:12:20;;;;;;;26.73;11.25;;;;;;;2.59;86.82;94031.75;5110830;28;20198;-74
2022/01/05 03:14:49;;;;;;;23.08;9.48;;;;;;;2.57;86.80;94023.22;5110969;28;20201;-74
2022/01/05 03:17:16;;;;;;;19.88;9.48;;;;;;;2.53;87.37;94008.84;5110381;28;20719;-75
2022/01/05 03:19:42;;;;;;;23.15;10.57;;;;;;;2.61;87.43;94026.88;5111021;28;20771;-74
2022/01/05 03:22:09;;;;;;;22.90;10.65;;;;;;;2.67;87.37;94025.72;5110956;28;20194;-74
2022/01/05 03:24:36;;;;;;;16.45;9.13;;;;;;;2.67;87.02;94020.38;5110981;28;20197;-74
2022/01/05 03:27:04;;;;;;;24.92;10.02;;;;;;;2.70;86.25;94019.81;5110804;28;20209;-74
2022/01/05 03:29:31;;;;;;;16.83;8.50;;;;;;;2.63;86.04;94016.69;5111027;28;20206;-74
2022/01/05 03:31:59;;;;;;;16.77;7.97;;;;;;;2.55;86.46;94025.41;5111957;28;20286;-74
2022/01/05 03:34:27;;;;;;;28.48;10.80;;;;;;;2.47;86.45;94015.34;5115643;28;20201;-74
2022/01/05 03:36:55;;;;;;;19.98;9.02;;;;;;;2.46;87.04;94019.13;5115741;28;20198;-74
2022/01/05 03:39:22;;;;;;;17.95;9.07;;;;;;;2.33;86.58;94026.00;5115277;28;20231;-74
2022/01/05 03:41:49;;;;;;;19.30;10.18;;;;;;;2.25;87.65;94021.31;5114407;28;20728;-74
2022/01/05 03:44:16;;;;;;;17.13;8.70;;;;;;;2.35;87.71;94023.03;5114634;28;20198;-74
2022/01/05 03:46:43;;;;;;;17.85;8.38;;;;;;;2.42;87.81;94028.81;5115145;28;20202;-74
2022/01/05 03:49:11;;;;;;;18.35;9.07;;;;;;;2.49;87.71;94034.56;5115365;28;20202;-74
2022/01/05 03:51:39;;;;;;;15.02;8.52;;;;;;;2.45;87.25;94014.88;5114736;28;20597;-74
2022/01/05 03:54:06;;;;;;;26.73;9.82;;;;;;;2.34;87.74;94021.44;5114576;28;20197;-74
2022/01/05 03:56:33;;;;;;;22.92;11.50;;;;;;;2.33;87.03;94025.19;5114448;28;20201;-75
2022/01/05 03:59:00;;;;;;;24.00;10.68;;;;;;;2.27;87.39;94018.34;5104250;28;20206;-74
2022/01/05 04:01:26;;;;;;;21.40;8.63;;;;;;;2.30;86.96;94029.25;5108010;28;20237;-74
2022/01/05 04:03:53;;;;;;;17.00;9.32;;;;;;;2.21;87.52;94027.53;5105525;28;20602;-74
2022/01/05 04:06:22;;;;;;;16.48;9.52;;;;;;;2.32;87.53;94018.28;5115005;28;20197;-74
2022/01/05 04:08:48;;;;;;;18.48;9.25;;;;;;;2.48;86.98;94016.94;5114909;28;20202;-74
2022/01/05 04:11:15;;;;;;;19.05;9.27;;;;;;;2.38;87.58;94017.09;5114425;28;20213;-74
2022/01/05 04:13:42;;;;;;;19.98;8.55;;;;;;;2.07;87.14;94006.88;5102508;28;20218;-74
2022/01/05 04:16:09;;;;;;;17.25;9.52;;;;;;;2.30;87.45;93999.88;5098793;28;20611;-74
2022/01/05 04:18:36;;;;;;;19.52;9.43;;;;;;;2.22;88.12;94013.06;5114775;28;20205;-74
2022/01/05 04:21:03;;;;;;;24.58;12.80;;;;;;;2.14;88.39;94006.53;5114652;28;20274;-74
2022/01/05 04:23:32;;;;;;;26.23;11.13;;;;;;;2.20;88.40;93993.88;5113661;28;20200;-73
2022/01/05 04:25:59;;;;;;;23.70;11.88;;;;;;;2.13;88.64;93991.59;5114480;28;20409;-74
2022/01/05 04:28:25;;;;;;;25.80;14.38;;;;;;;2.25;89.26;93996.47;5114249;28;20206;-75
2022/01/05 04:30:52;;;;;;;24.25;11.60;;;;;;;2.10;88.84;93984.94;5114219;28;20217;-74
2022/01/05 04:33:19;;;;;;;21.98;12.15;;;;;;;2.26;88.73;93982.03;5114371;28;20202;-73
2022/01/05 04:35:46;;;;;;;20.08;9.27;;;;;;;2.00;87.49;93995.78;5113637;28;20198;-74
2022/01/05 04:38:13;;;;;;;16.50;8.60;;;;;;;1.56;88.75;94008.66;5114250;28;20198;-74
2022/01/05 04:40:41;;;;;;;17.38;8.85;;;;;;;1.67;89.21;94007.44;5113605;28;20228;-73
2022/01/05 04:43:08;;;;;;;17.55;8.43;;;;;;;1.65;89.34;94004.25;5113054;28;20194;-73
2022/01/05 04:45:35;;;;;;;21.95;11.23;;;;;;;1.57;89.13;94024.38;5099951;28;20223;-74
2022/01/05 04:48:03;;;;;;;22.33;10.77;;;;;;;1.71;89.45;94016.47;5113832;28;20577;-73
2022/01/05 04:50:30;;;;;;;16.65;8.82;;;;;;;1.79;88.85;94013.16;5113828;28;20682;-74
2022/01/05 04:52:57;;;;;;;21.13;9.23;;;;;;;1.76;88.38;94011.06;5113606;28;20208;-73
2022/01/05 04:55:24;;;;;;;16.80;8.13;;;;;;;1.73;88.70;94011.66;5113314;28;20414;-73
2022/01/05 04:57:52;;;;;;;16.85;8.07;;;;;;;1.67;88.86;94024.25;5113835;28;20193;-73
2022/01/05 05:00:19;;;;;;;15.80;8.45;;;;;;;1.78;88.93;94014.22;5113370;28;20567;-74
2022/01/05 05:02:46;;;;;;;17.45;8.60;;;;;;;1.83;88.23;94016.84;5113592;28;20202;-74
2022/01/05 05:05:13;;;;;;;18.10;7.95;;;;;;;1.71;88.03;94024.47;5113374;28;20198;-73
2022/01/05 05:07:39;;;;;;;13.02;7.22;;;;;;;1.72;88.23;94026.88;5113525;28;20198;-73
2022/01/05 05:10:07;;;;;;;18.05;8.80;;;;;;;1.88;88.21;94024.78;5112872;28;20823;-76
2022/01/05 05:12:34;;;;;;;18.33;8.75;;;;;;;1.77;88.25;94044.72;5112952;28;20202;-73
2022/01/05 05:15:02;;;;;;;18.27;8.55;;;;;;;1.83;88.68;94038.19;5112817;28;20236;-72
2022/01/05 05:17:30;;;;;;;15.82;7.68;;;;;;;1.81;87.91;94050.25;5113073;28;20208;-73
2022/01/05 05:19:56;;;;;;;19.60;8.32;;;;;;;1.75;89.12;94047.66;5112654;28;20669;-73
2022/01/05 05:22:23;;;;;;;20.38;8.30;;;;;;;1.82;88.97;94039.28;5112537;28;20225;-73
2022/01/05 05:24:50;;;;;;;19.48;8.63;;;;;;;1.78;88.81;94048.94;5112506;28;20202;-73
2022/01/05 05:27:17;;;;;;;21.85;8.50;;;;;;;1.73;88.77;94047.16;5112404;28;20205;-73
2022/01/05 05:29:44;;;;;;;16.83;8.13;;;;;;;1.66;88.96;94059.22;5110821;28;20446;-72
2022/01/05 05:32:12;;;;;;;14.88;7.65;;;;;;;1.74;89.00;94061.28;5112588;28;20201;-73
2022/01/05 05:34:39;;;;;;;21.00;8.52;;;;;;;1.78;89.25;94056.94;5112428;28;20197;-73
2022/01/05 05:37:06;;;;;;;21.13;10.18;;;;;;;1.72;89.14;94056.22;5111946;28;20233;-72
2022/01/05 05:39:34;;;;;;;26.63;11.45;;;;;;;1.75;88.89;94060.22;5112403;28;20193;-73
2022/01/05 05:42:01;;;;;;;23.40;11.43;;;;;;;1.59;89.16;94042.78;5112659;28;20242;-73
2022/01/05 05:44:28;;;;;;;24.85;10.45;;;;;;;1.64;89.51;94056.09;5112839;28;20276;-73
2022/01/05 05:46:55;;;;;;;23.77;10.80;;;;;;;1.74;89.74;94055.94;5112445;28;20228;-73
2022/01/05 05:49:23;;;;;;;20.38;10.27;;;;;;;1.84;89.83;94049.69;5112767;28;20205;-72
2022/01/05 05:51:50;;;;;;;19.25;9.55;;;;;;;1.84;90.17;94061.16;5112607;28;20254;-71
2022/01/05 05:54:17;;;;;;;19.58;8.68;;;;;;;1.79;88.68;94059.34;5100866;28;20213;-73
2022/01/05 05:56:44;;;;;;;15.73;6.72;;;;;;;1.85;87.79;94056.59;5110727;28;20263;-72
2022/01/05 05:59:11;;;;;;;17.13;9.05;;;;;;;1.83;88.31;94069.44;5112381;28;20197;-72
2022/01/05 06:01:37;;;;;;;25.23;9.88;;;;;;;1.96;88.05;94060.72;5111954;28;20715;-72
2022/01/05 06:04:05;;;;;;;18.95;9.95;;;;;;;1.89;88.20;94057.63;5112753;28;20205;-72
2022/01/05 06:06:33;;;;;;;28.08;9.93;;;;;;;1.89;88.91;94055.75;5112402;28;20696;-72
2022/01/05 06:09:00;;;;;;;18.90;9.02;;;;;;;1.87;88.90;94060.59;5112169;28;20254;-72
2022/01/05 06:11:27;;;;;;;22.83;8.75;;;;;;;1.99;88.90;94052.94;5112106;28;20197;-72
2022/01/05 06:13:54;;;;;;;20.08;11.20;;;;;;;2.04;89.39;94060.91;5112369;28;20214;-72
2022/01/05 06:16:22;;;;;;;25.17;11.82;;;;;;;2.03;89.54;94064.66;5098347;28;20209;-72
2022/01/05 06:18:48;;;;;;;30.48;11.68;;;;;;;2.21;89.38;94070.25;5112148;28;20290;-72
2022/01/05 06:21:15;;;;;;;25.70;10.55;;;;;;;2.21;87.49;94054.22;5111922;28;20586;-72
2022/01/05 06:23:44;;;;;;;22.58;10.82;;;;;;;2.62;87.43;94063.22;5099665;28;20293;-72
2022/01/05 06:26:10;;;;;;;38.53;11.88;;;;;;;2.85;85.72;94064.22;5111239;28;20205;-71
2022/01/05 06:28:37;;;;;;;23.13;12.95;;;;;;;3.00;84.73;94065.84;5111643;28;20283;-72
2022/01/05 06:31:04;;;;;;;26.15;11.15;;;;;;;3.12;83.87;94074.97;5105663;28;20214;-73
2022/01/05 06:33:31;;;;;;;27.25;13.18;;;;;;;3.39;83.57;94073.44;5104812;28;20224;-73
2022/01/05 06:35:58;;;;;;;33.08;16.80;;;;;;;3.51;82.82;94058.47;5112142;28;20548;-71
2022/01/05 06:38:25;;;;;;;23.17;11.98;;;;;;;3.57;82.91;94070.66;5111715;28;20201;-72
2022/01/05 06:40:53;;;;;;;36.00;12.43;;;;;;;3.15;83.88;94054.84;5097777;28;20245;-71
2022/01/05 06:43:20;;;;;;;40.70;19.02;;;;;;;3.18;83.70;94051.59;5111844;28;20206;-72
2022/01/05 06:45:47;;;;;;;31.75;13.98;;;;;;;3.06;85.37;94075.34;5111891;28;20271;-72
2022/01/05 06:48:14;;;;;;;24.75;12.20;;;;;;;2.90;84.93;94060.66;5097506;28;20217;-73
2022/01/05 06:50:41;;;;;;;36.22;14.45;;;;;;;2.77;85.93;94087.06;5111792;28;20202;-72
2022/01/05 06:53:08;;;;;;;40.03;16.13;;;;;;;2.52;85.90;94076.75;5111448;28;20717;-72
2022/01/05 06:55:35;;;;;;;72.53;26.30;;;;;;;2.46;86.82;94088.63;5111900;28;20205;-72
2022/01/05 06:58:04;;;;;;;42.53;18.75;;;;;;;2.45;87.49;94077.13;5111284;28;20198;-73
2022/01/05 07:00:31;;;;;;;50.30;20.27;;;;;;;2.62;88.05;94075.81;5111074;28;20251;-73
2022/01/05 07:02:58;;;;;;;46.72;19.58;;;;;;;2.79;87.66;94063.50;5097549;28;20252;-71
2022/01/05 07:05:25;;;;;;;33.15;16.42;;;;;;;2.92;87.86;94061.94;5111208;28;20595;-71
2022/01/05 07:07:52;;;;;;;43.30;15.32;;;;;;;3.06;86.62;94060.09;5110964;28;20206;-72
2022/01/05 07:10:19;;;;;;;34.67;17.67;;;;;;;3.08;86.32;94062.47;5111420;28;20202;-72
2022/01/05 07:12:47;;;;;;;41.70;14.43;;;;;;;3.14;86.91;94066.66;5105113;28;20213;-77
2022/01/05 07:15:16;;;;;;;37.40;17.67;;;;;;;3.41;86.85;94068.59;5109478;28;20236;-74
2022/01/05 07:17:42;;;;;;;45.58;24.50;;;;;;;3.68;85.47;94060.56;5110900;28;20983;-76
2022/01/05 07:20:10;;;;;;;47.03;24.52;;;;;;;3.81;83.77;94065.13;5110951;28;20193;-76
2022/01/05 07:22:38;;;;;;;42.60;21.48;;;;;;;3.88;83.58;94059.34;5110912;28;20225;-76
2022/01/05 07:25:06;;;;;;;64.05;29.38;;;;;;;3.83;83.81;94057.53;5110292;28;20251;-78
2022/01/05 07:27:33;;;;;;;42.72;20.55;;;;;;;3.97;82.86;94068.25;5109839;28;20260;-76
2022/01/05 07:30:00;;;;;;;44.63;18.15;;;;;;;4.04;82.76;94068.66;5110572;28;20565;-76
2022/01/05 07:32:29;;;;;;;45.45;19.52;;;;;;;4.16;83.14;94076.97;5110972;28;20208;-84
2022/01/05 07:34:55;;;;;;;33.53;16.23;;;;;;;4.19;82.35;94065.66;5110719;28;20292;-75
2022/01/05 07:37:22;;;;;;;31.20;15.77;;;;;;;4.37;81.30;94055.09;5105614;28;20218;-75
2022/01/05 07:39:49;;;;;;;35.97;15.85;;;;;;;4.37;81.45;94071.97;5103152;28;20213;-75
2022/01/05 07:42:16;;;;;;;28.42;14.18;;;;;;;4.43;81.68;94069.94;5096235;28;20248;-76
2022/01/05 07:44:43;;;;;;;23.85;12.05;;;;;;;4.60;80.73;94070.09;5110240;28;20260;-75
2022/01/05 07:47:11;;;;;;;27.15;12.60;;;;;;;4.69;80.55;94070.16;5110636;28;20221;-76
2022/01/05 07:49:40;;;;;;;26.58;14.57;;;;;;;4.66;80.28;94068.88;5110927;28;20242;-76
2022/01/05 07:52:07;;;;;;;28.02;15.10;;;;;;;4.72;79.98;94073.03;5110805;28;20584;-75
2022/01/05 07:54:35;;;;;;;19.27;11.77;;;;;;;4.74;79.39;94078.91;5110666;28;20233;-75
2022/01/05 07:57:02;;;;;;;30.67;13.82;;;;;;;4.79;79.29;94073.38;5110060;28;20206;-75
2022/01/05 07:59:29;;;;;;;19.25;8.98;;;;;;;4.90;79.01;94074.75;5096517;28;20603;-78
2022/01/05 08:01:56;;;;;;;28.52;12.88;;;;;;;4.98;78.75;94070.53;5110370;28;20229;-80
2022/01/05 08:04:23;;;;;;;21.23;10.45;;;;;;;5.16;78.48;94066.06;5109735;28;20201;-77
2022/01/05 08:06:51;;;;;;;25.50;11.65;;;;;;;5.25;77.15;94064.22;5110816;28;20198;-75
2022/01/05 08:09:18;;;;;;;22.77;8.90;;;;;;;5.42;76.73;94075.06;5109019;28;20202;-75
2022/01/05 08:11:45;;;;;;;14.63;8.43;;;;;;;5.48;75.97;94064.94;5110883;28;20201;-77
2022/01/05 08:14:12;;;;;;;11.02;6.55;;;;;;;5.61;75.56;94075.59;5110409;28;20222;-77
2022/01/05 08:16:39;;;;;;;16.67;9.35;;;;;;;5.74;75.24;94073.16;5111094;28;20209;-73
2022/01/05 08:19:06;;;;;;;19.35;8.88;;;;;;;5.75;75.02;94072.81;5111341;28;20289;-77
2022/01/05 08:21:33;;;;;;;19.77;8.43;;;;;;;5.82;74.35;94077.75;5114120;28;20198;-76
2022/01/05 08:24:01;;;;;;;14.18;8.05;;;;;;;5.78;74.37;94071.41;5114117;28;20656;-75
2022/01/05 08:26:28;;;;;;;15.10;9.15;;;;;;;6.02;74.62;94075.31;5114093;28;20202;-75
2022/01/05 08:28:55;;;;;;;21.30;7.65;;;;;;;6.10;73.76;94072.97;5100403;28;20241;-77
2022/01/05 08:31:22;;;;;;;17.75;11.13;;;;;;;6.24;73.80;94069.03;5114053;28;20208;-79
2022/01/05 08:33:49;;;;;;;12.32;6.30;;;;;;;6.29;71.99;94070.78;5113621;28;20205;-76
2022/01/05 08:36:16;;;;;;;14.02;7.07;;;;;;;6.41;72.00;94066.38;5113911;28;20210;-75
2022/01/05 08:38:43;;;;;;;18.52;8.05;;;;;;;6.38;72.76;94052.78;5113740;28;20210;-76
2022/01/05 08:41:12;;;;;;;15.23;8.00;;;;;;;6.34;71.99;94057.97;5113656;28;20279;-75
2022/01/05 08:43:39;;;;;;;19.13;9.30;;;;;;;6.30;72.42;94072.34;5113660;28;20302;-75
2022/01/05 08:46:06;;;;;;;20.50;9.82;;;;;;;6.18;72.21;94069.50;5113583;28;20275;-74
2022/01/05 08:48:33;;;;;;;24.13;9.85;;;;;;;6.24;72.52;94073.63;5113656;28;20710;-75
2022/01/05 08:51:00;;;;;;;16.33;8.23;;;;;;;6.35;72.09;94069.53;5113229;28;20205;-76
2022/01/05 08:53:27;;;;;;;18.75;10.02;;;;;;;6.41;72.12;94063.69;5113853;28;20209;-75
2022/01/05 08:55:54;;;;;;;19.38;10.48;;;;;;;6.36;71.81;94063.03;5113574;28;20266;-74
2022/01/05 08:58:22;;;;;;;17.92;9.05;;;;;;;6.29;72.40;94076.16;5108303;28;20202;-76
2022/01/05 09:04:11;;;;;;;15.50;8.65;;;;;;;6.36;71.78;94061.16;5105998;28;20228;-74
2022/01/05 09:06:38;;;;;;;19.08;8.13;;;;;;;6.22;71.82;94065.88;5113646;28;20202;-75
2022/01/05 09:09:05;;;;;;;12.90;7.72;;;;;;;6.47;71.33;94056.25;5112871;28;20201;-76
2022/01/05 09:11:32;;;;;;;15.65;7.95;;;;;;;6.45;71.01;94052.28;5098902;28;20270;-77
2022/01/05 09:14:01;;;;;;;15.55;7.95;;;;;;;6.53;70.31;94051.50;5112923;28;20225;-75
2022/01/05 09:16:29;;;;;;;13.43;5.78;;;;;;;6.75;70.69;94049.44;5112998;28;20198;-75
2022/01/05 09:18:56;;;;;;;15.35;7.95;;;;;;;7.06;70.54;94035.81;5112796;28;20289;-76
2022/01/05 09:21:23;;;;;;;15.68;8.40;;;;;;;7.06;69.83;94030.41;5112932;28;20246;-75
2022/01/05 09:23:51;;;;;;;9.90;5.55;;;;;;;7.10;68.97;94036.75;5112188;28;20230;-76
2022/01/05 09:26:18;;;;;;;18.23;9.75;;;;;;;7.11;69.04;94032.13;5100369;28;20284;-75
2022/01/05 09:28:45;;;;;;;17.92;7.72;;;;;;;7.05;69.09;94023.44;5098100;28;20773;-75
2022/01/05 09:31:13;;;;;;;12.13;6.47;;;;;;;6.97;68.75;94026.16;5100268;28;20194;-76
2022/01/05 09:33:41;;;;;;;12.18;6.75;;;;;;;7.19;68.69;94023.25;5113129;28;20562;-77
2022/01/05 09:36:13;;;;;;;18.80;8.10;;;;;;;7.35;69.07;94015.44;5112688;28;20297;-78
2022/01/05 09:44:09;;;;;;;23.55;7.07;;;;;;;7.38;68.49;93998.66;5112473;28;20229;-76
2022/01/05 09:46:52;;;;;;;17.42;7.93;;;;;;;7.34;68.72;93995.00;5112493;28;20214;-75
2022/01/05 09:49:25;;;;;;;22.05;11.43;;;;;;;7.69;68.54;93982.97;5112608;28;20250;-74
2022/01/05 09:51:56;;;;;;;19.38;11.20;;;;;;;7.97;67.32;93982.50;5111733;28;20250;-75
2022/01/05 09:54:24;;;;;;;16.95;8.23;;;;;;;8.19;66.67;93979.50;5111706;28;20338;-76
2022/01/05 09:56:51;;;;;;;13.57;6.85;;;;;;;8.25;65.35;93983.56;5112211;28;20201;-76
2022/01/05 09:59:19;;;;;;;22.73;6.43;;;;;;;8.28;65.72;93974.03;5112316;28;20247;-78
2022/01/05 10:01:48;;;;;;;13.32;5.40;;;;;;;8.52;65.20;93969.59;5111779;28;20668;-76
2022/01/05 10:04:16;;;;;;;16.98;9.57;;;;;;;8.63;64.71;93982.66;5111750;28;20209;-74
2022/01/05 10:06:43;;;;;;;14.52;8.98;;;;;;;8.58;64.44;93974.78;5091329;28;20206;-76
2022/01/05 10:09:10;;;;;;;12.40;6.65;;;;;;;8.71;64.71;93957.53;5105584;28;20602;-74
2022/01/05 10:11:37;;;;;;;13.90;8.30;;;;;;;8.90;63.70;93960.50;5111691;28;20698;-75
2022/01/05 10:14:06;;;;;;;21.42;9.23;;;;;;;8.76;63.82;93954.59;5112140;28;20301;-77
2022/01/05 10:16:33;;;;;;;14.93;8.85;;;;;;;8.86;63.77;93954.19;5111857;28;20206;-76
2022/01/05 10:19:01;;;;;;;19.10;8.73;;;;;;;9.10;63.59;93956.19;5111792;28;20894;-75
2022/01/05 10:21:35;;;;;;;15.18;8.68;;;;;;;9.05;62.91;93943.66;5112062;28;20197;-75
2022/01/05 10:24:03;;;;;;;12.32;7.97;;;;;;;8.91;62.67;93940.47;5097760;28;20316;-75
2022/01/05 10:26:31;;;;;;;21.58;8.82;;;;;;;8.99;63.22;93936.91;5111689;28;20206;-75
2022/01/05 10:29:00;;;;;;;14.77;8.70;;;;;;;9.12;62.68;93932.31;5111774;28;20343;-76
2022/01/05 10:31:29;;;;;;;15.13;8.63;;;;;;;9.37;61.90;93927.72;5111548;28;20251;-77
2022/01/05 10:33:58;;;;;;;15.65;9.60;;;;;;;9.35;61.76;93932.69;5112047;28;20213;-78
2022/01/05 10:36:43;;;;;;;14.63;8.60;;;;;;;9.46;61.63;93917.59;5111575;28;20202;-77
2022/01/05 10:39:10;;;;;;;13.27;9.05;;;;;;;9.56;61.41;93920.66;5111726;28;20201;-75
2022/01/05 10:41:39;;;;;;;15.13;9.38;;;;;;;9.53;61.19;93917.81;5110139;28;20241;-77
2022/01/05 10:44:12;;;;;;;19.63;9.00;;;;;;;9.49;61.23;93912.31;5111251;28;20802;-75
2022/01/05 10:46:42;;;;;;;21.90;9.57;;;;;;;9.58;60.79;93910.25;5111335;28;20247;-75
2022/01/05 10:49:09;;;;;;;18.35;9.02;;;;;;;9.66;60.59;93903.19;5111715;28;20702;-76
2022/01/05 10:51:38;;;;;;;15.60;8.52;;;;;;;9.73;60.73;93889.06;5111646;28;20202;-76
2022/01/05 10:54:13;;;;;;;16.23;9.00;;;;;;;9.90;60.80;93895.03;5110970;28;20217;-74
2022/01/05 10:56:40;;;;;;;24.23;9.00;;;;;;;10.07;60.22;93872.34;5111075;28;20209;-74
2022/01/05 10:59:07;;;;;;;13.57;7.95;;;;;;;9.96;59.72;93882.06;5111361;28;20198;-75
2022/01/05 11:01:34;;;;;;;17.15;8.32;;;;;;;10.10;59.53;93889.81;5111090;28;20664;-76
2022/01/05 11:04:15;;;;;;;19.98;8.75;;;;;;;10.30;59.12;93881.53;5111419;28;20354;-75
2022/01/05 11:06:56;;;;;;;13.57;8.20;;;;;;;10.29;59.31;93877.25;5098250;28;20233;-75
2022/01/05 11:09:23;;;;;;;15.45;8.02;;;;;;;10.28;58.70;93872.19;5110830;28;20201;-75
2022/01/05 11:11:50;;;;;;;17.15;10.32;;;;;;;10.78;61.59;93874.34;5110590;28;20221;-74
2022/01/05 11:14:19;;;;;;;21.55;11.48;;;;;;;11.30;65.48;93868.69;5111145;28;20197;-74
2022/01/05 11:16:49;;;;;;;15.52;9.30;;;;;;;11.21;57.55;93870.00;5111222;28;20216;-76
2022/01/05 11:19:21;;;;;;;17.38;8.95;;;;;;;11.05;57.42;93872.72;5111293;28;20213;-74
2022/01/05 11:22:08;;;;;;;14.15;8.82;;;;;;;11.02;57.85;93865.28;5111423;28;20201;-75
2022/01/05 11:24:38;;;;;;;14.15;8.40;;;;;;;10.96;57.07;93855.81;5106556;28;20290;-76
2022/01/05 11:27:06;;;;;;;18.45;10.13;;;;;;;10.86;57.35;93845.50;5111103;28;20221;-75
2022/01/05 11:29:34;;;;;;;17.40;8.85;;;;;;;10.92;57.05;93850.34;5111343;28;20536;-78
2022/01/05 11:32:02;;;;;;;15.68;9.25;;;;;;;10.90;57.38;93840.97;5111101;28;20271;-79
2022/01/05 11:34:30;;;;;;;11.90;8.77;;;;;;;10.91;57.71;93839.84;5111025;28;20692;-80
2022/01/05 11:36:57;;;;;;;16.13;8.65;;;;;;;10.83;57.16;93832.66;5111666;28;20201;-79
2022/01/05 11:39:26;;;;;;;14.20;7.97;;;;;;;10.79;57.95;93831.78;5110730;28;20205;-75